createdAt,value
2023-04-18T00:01:11.408Z,13.50
2023-04-18T00:04:15.381Z,13.47
2023-04-18T00:07:19.364Z,13.46
2023-04-18T00:10:25.330Z,13.43
2023-04-18T00:13:28.971Z,13.26
2023-04-18T00:16:33.289Z,13.23
2023-04-18T00:19:38.578Z,13.02
2023-04-18T00:22:43.983Z,13.17
2023-04-18T00:25:48.820Z,13.02
2023-04-18T00:28:52.744Z,13.01
2023-04-18T00:31:56.200Z,12.92
2023-04-18T00:34:59.919Z,12.86
2023-04-18T00:38:03.388Z,12.77
2023-04-18T00:41:08.597Z,12.82
2023-04-18T00:44:12.186Z,13.06
2023-04-18T00:47:17.134Z,12.89
2023-04-18T00:50:21.330Z,13.02
2023-04-18T00:53:25.514Z,13.10
2023-04-18T00:56:30.788Z,13.17
2023-04-18T00:59:35.550Z,13.03
2023-04-18T01:02:40.659Z,13.13
2023-04-18T01:05:44.582Z,13.25
2023-04-18T01:08:50.528Z,13.19
2023-04-18T01:11:56.464Z,13.02
2023-04-18T01:15:00.742Z,12.97
2023-04-18T01:18:07.736Z,12.90
2023-04-18T01:21:11.390Z,12.97
2023-04-18T01:24:17.938Z,12.98
2023-04-18T01:27:21.461Z,13.01
2023-04-18T01:30:25.236Z,12.90
2023-04-18T01:33:28.726Z,13.10
2023-04-18T01:36:33.077Z,12.65
2023-04-18T01:39:38.142Z,13.01
2023-04-18T01:42:41.935Z,12.23
2023-04-18T01:45:47.456Z,12.14
2023-04-18T01:48:51.370Z,12.18
2023-04-18T01:51:57.114Z,12.21
2023-04-18T01:55:04.039Z,12.40
2023-04-18T01:58:07.748Z,12.45
2023-04-18T02:01:13.256Z,12.60
2023-04-18T02:04:16.910Z,12.12
2023-04-18T02:07:23.423Z,12.42
2023-04-18T02:10:28.902Z,12.54
2023-04-18T02:13:32.749Z,12.67
2023-04-18T02:16:36.600Z,12.84
2023-04-18T02:19:41.117Z,12.70
2023-04-18T02:22:44.951Z,12.12
2023-04-18T02:25:50.846Z,12.31
2023-04-18T02:28:54.454Z,12.50
2023-04-18T02:31:59.425Z,12.50
2023-04-18T02:35:03.086Z,12.00
2023-04-18T02:38:06.971Z,12.12
2023-04-18T02:41:15.329Z,11.51
2023-04-18T02:44:19.281Z,12.05
2023-04-18T02:47:23.243Z,12.19
2023-04-18T02:50:27.085Z,12.20
2023-04-18T02:53:32.465Z,11.80
2023-04-18T02:56:40.094Z,12.07
2023-04-18T03:00:08.430Z,12.18
2023-04-18T03:03:36.586Z,12.19
2023-04-18T03:07:02.651Z,12.40
2023-04-18T03:10:11.453Z,12.23
2023-04-18T03:13:17.610Z,12.07
2023-04-18T03:16:23.247Z,12.38
2023-04-18T03:19:27.244Z,12.58
2023-04-18T03:22:32.940Z,12.70
2023-04-18T03:25:36.753Z,12.38
2023-04-18T03:28:43.391Z,12.62
2023-04-18T03:31:47.366Z,12.66
2023-04-18T03:34:52.311Z,12.74
2023-04-18T03:37:56.104Z,12.68
2023-04-18T03:41:06.989Z,12.56
2023-04-18T03:44:15.738Z,12.77
2023-04-18T03:47:19.723Z,12.63
2023-04-18T03:50:26.628Z,12.47
2023-04-18T03:53:33.251Z,12.48
2023-04-18T03:56:37.345Z,12.58
2023-04-18T03:59:43.018Z,12.75
2023-04-18T04:02:47.239Z,12.71
2023-04-18T04:05:57.871Z,12.87
2023-04-18T04:09:01.929Z,12.96
2023-04-18T04:12:06.905Z,12.87
2023-04-18T04:15:13.058Z,12.99
2023-04-18T04:18:29.822Z,13.02
2023-04-18T04:21:35.953Z,12.74
2023-04-18T04:24:42.284Z,12.84
2023-04-18T04:27:49.735Z,12.74
2023-04-18T04:30:55.563Z,12.74
2023-04-18T04:33:59.115Z,12.83
2023-04-18T04:37:03.076Z,12.70
2023-04-18T04:40:10.757Z,12.32
2023-04-18T04:43:20.479Z,12.20
2023-04-18T04:46:26.693Z,12.63
2023-04-18T04:49:31.393Z,11.92
2023-04-18T04:52:35.081Z,12.11
2023-04-18T04:55:40.128Z,12.22
2023-04-18T04:58:45.158Z,12.39
2023-04-18T05:02:01.531Z,12.42
2023-04-18T05:05:05.581Z,12.43
2023-04-18T05:08:09.517Z,12.73
2023-04-18T05:11:13.068Z,12.45
2023-04-18T05:14:17.680Z,12.40
2023-04-18T05:17:22.563Z,12.15
2023-04-18T05:20:26.382Z,12.37
2023-04-18T05:23:29.944Z,11.83
2023-04-18T05:26:33.703Z,12.08
2023-04-18T05:29:37.066Z,12.32
2023-04-18T05:32:42.397Z,11.95
2023-04-18T05:35:45.929Z,11.90
2023-04-18T05:38:49.791Z,11.58
2023-04-18T05:41:53.271Z,10.83
2023-04-18T05:44:57.669Z,11.50
2023-04-18T05:48:02.573Z,11.67
2023-04-18T05:51:06.780Z,11.70
2023-04-18T05:54:10.582Z,11.89
2023-04-18T05:57:14.391Z,11.54
2023-04-18T06:00:18.855Z,11.75
2023-04-18T06:03:24.150Z,11.58
2023-04-18T06:06:27.853Z,11.84
2023-04-18T06:09:31.595Z,11.91
2023-04-18T06:12:35.202Z,12.01
2023-04-18T06:15:39.005Z,12.24
2023-04-18T06:18:43.863Z,12.23
2023-04-18T06:21:47.939Z,12.35
2023-04-18T06:24:51.520Z,12.18
2023-04-18T06:27:55.342Z,12.20
2023-04-18T06:30:58.849Z,12.47
2023-04-18T06:34:04.068Z,11.77
2023-04-18T06:37:07.692Z,12.37
2023-04-18T06:40:12.537Z,12.45
2023-04-18T06:43:16.044Z,12.75
2023-04-18T06:46:22.435Z,12.50
2023-04-18T06:49:27.324Z,12.60
2023-04-18T06:52:31.134Z,12.59
2023-04-18T06:55:34.629Z,12.38
2023-04-18T06:58:38.317Z,12.55
2023-04-18T07:01:42.665Z,12.38
2023-04-18T07:04:48.040Z,12.81
2023-04-18T07:07:51.724Z,13.00
2023-04-18T07:10:55.669Z,13.04
2023-04-18T07:13:59.106Z,13.01
2023-04-18T07:17:03.081Z,12.95
2023-04-18T07:20:12.350Z,12.51
2023-04-18T07:23:18.032Z,12.55
2023-04-18T07:26:21.623Z,12.93
2023-04-18T07:29:25.440Z,12.99
2023-04-18T07:32:28.831Z,13.27
2023-04-18T07:35:34.144Z,12.92
2023-04-18T07:38:37.817Z,13.13
2023-04-18T07:41:41.581Z,13.35
2023-04-18T07:44:45.190Z,13.46
2023-04-18T07:47:49.091Z,13.09
2023-04-18T07:50:54.484Z,13.18
2023-04-18T07:53:58.477Z,13.00
2023-04-18T07:57:01.961Z,13.36
2023-04-18T08:00:07.353Z,13.39
2023-04-18T08:03:16.534Z,12.62
2023-04-18T08:06:22.685Z,13.27
2023-04-18T08:09:26.426Z,13.38
2023-04-18T08:12:30.583Z,13.48
2023-04-18T08:15:33.977Z,13.04
2023-04-18T08:18:37.773Z,12.84
2023-04-18T08:21:42.748Z,12.97
2023-04-18T08:24:57.222Z,13.14
2023-04-18T08:28:07.098Z,12.86
2023-04-18T08:31:13.584Z,13.11
2023-04-18T08:34:17.194Z,12.71
2023-04-18T08:37:22.299Z,12.70
2023-04-18T08:40:25.706Z,12.56
2023-04-18T08:43:31.226Z,12.59
2023-04-18T08:46:36.046Z,12.86
2023-04-18T08:49:40.017Z,13.17
2023-04-18T08:52:48.934Z,13.28
2023-04-18T08:55:55.182Z,13.60
2023-04-18T08:59:00.247Z,13.35
2023-04-18T09:02:05.033Z,13.17
2023-04-18T09:05:13.131Z,13.17
2023-04-18T09:08:25.120Z,13.34
2023-04-18T09:11:31.813Z,13.57
2023-04-18T09:14:37.442Z,13.41
2023-04-18T09:17:43.897Z,12.90
2023-04-18T09:20:49.991Z,13.58
2023-04-18T09:24:17.592Z,13.93
2023-04-18T09:27:23.063Z,14.06
2023-04-18T09:30:36.988Z,13.34
2023-04-18T09:33:43.116Z,13.82
2023-04-18T09:36:46.521Z,13.67
2023-04-18T09:39:51.923Z,14.11
2023-04-18T09:42:55.643Z,14.38
2023-04-18T09:46:01.190Z,14.78
2023-04-18T09:49:04.844Z,15.13
2023-04-18T09:52:09.678Z,15.51
2023-04-18T09:55:16.275Z,15.62
2023-04-18T09:58:23.447Z,15.97
2023-04-18T10:01:29.871Z,16.08
2023-04-18T10:04:34.230Z,15.88
2023-04-18T10:07:38.762Z,16.26
2023-04-18T10:10:45.034Z,16.58
2023-04-18T10:13:51.038Z,16.72
2023-04-18T10:16:54.912Z,16.43
2023-04-18T10:20:10.075Z,16.52
2023-04-18T10:23:36.541Z,15.68
2023-04-18T10:26:50.350Z,16.18
2023-04-18T10:29:55.211Z,16.51
2023-04-18T10:32:58.609Z,16.73
2023-04-18T10:36:06.196Z,16.31
2023-04-18T10:39:22.491Z,16.36
2023-04-18T10:43:00.494Z,16.63
2023-04-18T10:46:31.776Z,16.43
2023-04-18T10:49:37.795Z,16.40
2023-04-18T10:52:42.128Z,15.79
2023-04-18T10:55:56.810Z,15.37
2023-04-18T10:59:03.681Z,15.29
2023-04-18T11:02:20.187Z,15.66
2023-04-18T11:05:26.575Z,15.78
2023-04-18T11:08:30.857Z,15.60
2023-04-18T11:11:34.370Z,15.72
2023-04-18T11:14:42.924Z,16.05
2023-04-18T11:17:46.463Z,16.19
2023-04-18T11:20:51.801Z,15.56
2023-04-18T11:23:57.806Z,15.62
2023-04-18T11:27:01.858Z,15.09
2023-04-18T11:30:08.339Z,14.71
2023-04-18T11:33:12.919Z,14.82
2023-04-18T11:36:16.504Z,14.52
2023-04-18T11:39:20.758Z,14.51
2023-04-18T11:42:28.056Z,14.45
2023-04-18T11:45:33.506Z,14.31
2023-04-18T11:48:37.332Z,14.49
2023-04-18T11:51:44.765Z,14.02
2023-04-18T11:54:48.409Z,13.80
2023-04-18T11:57:53.886Z,13.76
2023-04-18T12:00:58.937Z,13.89
2023-04-18T12:04:04.035Z,13.76
2023-04-18T12:07:07.687Z,13.52
2023-04-18T12:10:25.625Z,13.96
2023-04-18T12:13:35.963Z,14.16
2023-04-18T12:16:42.817Z,14.13
2023-04-18T12:19:49.283Z,14.33
2023-04-18T12:22:55.126Z,14.52
2023-04-18T12:26:03.228Z,13.84
2023-04-18T12:29:06.895Z,14.13
2023-04-18T12:32:11.604Z,14.48
2023-04-18T12:35:15.598Z,14.55
2023-04-18T12:38:22.639Z,14.26
2023-04-18T12:41:26.930Z,14.27
2023-04-18T12:44:30.479Z,14.62
2023-04-18T12:47:35.924Z,14.25
2023-04-18T12:50:39.786Z,14.22
2023-04-18T12:53:43.572Z,14.43
2023-04-18T12:56:47.497Z,14.37
2023-04-18T12:59:51.703Z,14.25
2023-04-18T13:02:58.465Z,14.21
2023-04-18T13:06:02.422Z,14.47
2023-04-18T13:09:05.851Z,14.45
2023-04-18T13:12:09.812Z,13.88
2023-04-18T13:15:13.336Z,14.34
2023-04-18T13:18:18.488Z,14.55
2023-04-18T13:21:24.957Z,14.72
2023-04-18T13:24:28.837Z,14.62
2023-04-18T13:27:32.570Z,14.64
2023-04-18T13:30:37.535Z,14.37
2023-04-18T13:33:42.601Z,14.32
2023-04-18T13:36:46.869Z,13.97
2023-04-18T13:39:51.054Z,14.71
2023-04-18T13:42:54.848Z,15.03
2023-04-18T13:45:58.363Z,15.25
2023-04-18T13:49:03.541Z,15.41
2023-04-18T13:52:07.057Z,15.73
2023-04-18T13:55:12.508Z,15.08
2023-04-18T13:58:16.446Z,15.07
2023-04-18T14:01:21.052Z,14.96
2023-04-18T14:04:26.177Z,15.07
2023-04-18T14:07:31.217Z,15.09
2023-04-18T14:10:35.002Z,15.07
2023-04-18T14:13:39.118Z,14.99
2023-04-18T14:16:42.603Z,14.87
2023-04-18T14:19:48.173Z,14.73
2023-04-18T14:22:53.145Z,14.89
2023-04-18T14:25:57.321Z,14.66
2023-04-18T14:29:01.076Z,14.60
2023-04-18T14:32:08.243Z,14.78
2023-04-18T14:35:13.222Z,15.14
2023-04-18T14:38:17.159Z,14.56
2023-04-18T14:41:20.645Z,14.59
2023-04-18T14:44:24.537Z,14.74
2023-04-18T14:47:31.992Z,14.86
2023-04-18T14:50:38.713Z,14.75
2023-04-18T14:53:43.704Z,14.26
2023-04-18T14:56:47.540Z,14.28
2023-04-18T14:59:51.352Z,14.26
2023-04-18T15:02:55.670Z,14.32
2023-04-18T15:06:00.597Z,14.49
2023-04-18T15:09:04.597Z,13.80
2023-04-18T15:12:08.811Z,13.58
2023-04-18T15:15:14.067Z,13.74
2023-04-18T15:18:17.497Z,13.79
2023-04-18T15:21:22.569Z,14.07
2023-04-18T15:24:25.964Z,13.78
2023-04-18T15:27:30.059Z,14.13
2023-04-18T15:30:34.040Z,14.25
2023-04-18T15:33:37.747Z,14.30
2023-04-18T15:36:42.581Z,14.25
2023-04-18T15:39:46.338Z,14.10
2023-04-18T15:42:51.037Z,14.23
2023-04-18T15:45:54.763Z,14.12
2023-04-18T15:48:58.214Z,14.17
2023-04-18T15:52:07.378Z,14.36
2023-04-18T15:55:12.461Z,14.35
2023-04-18T15:58:16.353Z,14.26
2023-04-18T16:01:20.669Z,14.28
2023-04-18T16:04:24.421Z,13.93
2023-04-18T16:07:29.328Z,13.91
2023-04-18T16:10:33.122Z,13.92
2023-04-18T16:13:38.255Z,14.05
2023-04-18T16:16:42.704Z,13.84
2023-04-18T16:19:46.241Z,14.00
2023-04-18T16:22:51.295Z,13.52
2023-04-18T16:25:55.669Z,13.80
2023-04-18T16:28:59.617Z,13.70
2023-04-18T16:32:03.116Z,13.74
2023-04-18T16:35:10.199Z,13.95
2023-04-18T16:38:15.092Z,14.07
2023-04-18T16:41:19.183Z,14.05
2023-04-18T16:44:22.699Z,14.13
2023-04-18T16:47:26.507Z,13.83
2023-04-18T16:50:30.308Z,13.93
2023-04-18T16:53:36.096Z,14.13
2023-04-18T16:56:39.862Z,14.11
2023-04-18T16:59:43.791Z,13.70
2023-04-18T17:02:48.381Z,13.77
2023-04-18T17:05:52.326Z,13.41
2023-04-18T17:08:58.309Z,13.43
2023-04-18T17:12:03.377Z,13.42
2023-04-18T17:15:07.752Z,13.42
2023-04-18T17:18:11.782Z,13.74
2023-04-18T17:21:15.398Z,13.69
2023-04-18T17:24:22.487Z,13.75
2023-04-18T17:27:25.985Z,13.80
2023-04-18T17:30:29.785Z,13.67
2023-04-18T17:33:33.772Z,13.81
2023-04-18T17:36:37.593Z,13.81
2023-04-18T17:39:42.549Z,13.85
2023-04-18T17:42:47.762Z,13.85
2023-04-18T17:45:51.743Z,13.80
2023-04-18T17:48:55.674Z,13.82
2023-04-18T17:51:59.116Z,13.80
2023-04-18T17:55:04.445Z,13.79
2023-04-18T17:58:07.967Z,13.76
2023-04-18T18:04:35.611Z,13.56
2023-04-18T18:07:45.904Z,13.57
2023-04-18T18:10:53.428Z,13.44
2023-04-18T18:13:59.282Z,13.46
2023-04-18T18:17:03.319Z,13.22
2023-04-18T18:20:09.902Z,13.19
2023-04-18T18:23:13.447Z,12.97
2023-04-18T18:26:18.930Z,13.12
2023-04-18T18:29:25.103Z,13.25
2023-04-18T18:32:29.133Z,13.21
2023-04-18T18:35:32.780Z,13.27
2023-04-18T18:38:37.447Z,13.30
2023-04-18T18:41:43.372Z,13.24
2023-04-18T18:44:47.126Z,13.18
2023-04-18T18:47:51.178Z,13.15
2023-04-18T18:50:56.665Z,13.13
2023-04-18T18:54:00.318Z,13.00
2023-04-18T18:57:05.825Z,13.02
2023-04-18T19:00:12.073Z,13.17
2023-04-18T19:03:19.042Z,13.18
2023-04-18T19:06:23.472Z,12.99
2023-04-18T19:09:27.452Z,12.95
2023-04-18T19:12:32.715Z,12.92
2023-04-18T19:15:36.882Z,12.95
2023-04-18T19:18:41.540Z,12.95
2023-04-18T19:21:46.096Z,13.10
2023-04-18T19:24:49.611Z,13.09
2023-04-18T19:27:54.774Z,13.15
2023-04-18T19:30:58.376Z,13.04
2023-04-18T19:34:03.869Z,13.07
2023-04-18T19:37:07.284Z,13.15
2023-04-18T19:40:14.274Z,13.08
2023-04-18T19:43:19.625Z,13.10
2023-04-18T19:46:24.054Z,13.30
2023-04-18T19:49:27.622Z,13.26
2023-04-18T19:52:31.906Z,13.24
2023-04-18T19:55:35.568Z,13.15
2023-04-18T19:58:46.741Z,13.05
2023-04-18T20:01:50.399Z,13.14
2023-04-18T20:04:54.466Z,13.19
2023-04-18T20:07:58.100Z,13.20
2023-04-18T20:11:04.718Z,13.25
2023-04-18T20:14:10.278Z,13.32
2023-04-18T20:17:14.700Z,13.22
2023-04-18T20:20:18.199Z,13.00
2023-04-18T20:23:22.465Z,13.14
2023-04-18T20:26:26.121Z,13.21
2023-04-18T20:29:32.477Z,13.16
2023-04-18T20:32:35.967Z,13.26
2023-04-18T20:35:40.611Z,13.08
2023-04-18T20:38:44.497Z,13.24
2023-04-18T20:41:50.981Z,13.29
2023-04-18T20:44:56.226Z,13.20
2023-04-18T20:48:00.831Z,13.11
2023-04-18T20:51:04.510Z,13.10
2023-04-18T20:54:08.305Z,13.19
2023-04-18T20:57:11.881Z,13.19
2023-04-18T21:00:18.450Z,13.14
2023-04-18T21:03:22.059Z,13.13
2023-04-18T21:06:27.209Z,13.29
2023-04-18T21:09:36.427Z,13.32
2023-04-18T21:12:40.313Z,13.21
2023-04-18T21:15:45.426Z,13.10
2023-04-18T21:18:49.320Z,13.15
2023-04-18T21:21:52.775Z,13.08
2023-04-18T21:24:56.719Z,13.10
2023-04-18T21:28:00.570Z,13.16
2023-04-18T21:31:05.920Z,13.20
2023-04-18T21:34:11.261Z,13.14
2023-04-18T21:37:14.972Z,12.98
2023-04-18T21:40:18.930Z,12.97
2023-04-18T21:43:22.732Z,13.06
2023-04-18T21:46:27.745Z,13.00
2023-04-18T21:49:31.443Z,13.14
2023-04-18T21:52:34.970Z,13.29
2023-04-18T21:55:38.735Z,13.32
2023-04-18T21:58:42.435Z,13.21
2023-04-18T22:01:47.477Z,13.31
2023-04-18T22:04:51.307Z,13.24
2023-04-18T22:07:58.412Z,13.28
2023-04-18T22:11:02.211Z,13.19
2023-04-18T22:14:06.290Z,13.27
2023-04-18T22:17:11.221Z,13.24
2023-04-18T22:20:15.123Z,13.27
2023-04-18T22:23:18.459Z,13.30
2023-04-18T22:26:22.319Z,13.21
2023-04-18T22:29:26.896Z,13.30
2023-04-18T22:32:32.403Z,13.35
2023-04-18T22:35:36.027Z,13.21
2023-04-18T22:38:39.873Z,13.26
2023-04-18T22:41:43.303Z,13.29
2023-04-18T22:44:49.948Z,13.31
2023-04-18T22:47:54.848Z,13.30
2023-04-18T22:51:01.803Z,13.32
2023-04-18T22:54:05.279Z,13.37
2023-04-18T22:57:09.171Z,13.34
2023-04-18T23:00:14.560Z,13.40
2023-04-18T23:03:20.126Z,13.26
2023-04-18T23:06:23.760Z,13.03
2023-04-18T23:09:27.702Z,13.05
2023-04-18T23:12:31.242Z,13.06
2023-04-18T23:15:35.274Z,13.10
2023-04-18T23:18:42.192Z,13.11
2023-04-18T23:21:47.636Z,12.99
2023-04-18T23:24:52.722Z,13.04
2023-04-18T23:27:56.508Z,12.88
2023-04-18T23:31:00.299Z,12.81
2023-04-18T23:34:05.520Z,12.78
2023-04-18T23:37:09.644Z,12.76
2023-04-18T23:40:13.510Z,12.68
2023-04-18T23:43:17.006Z,12.59
2023-04-18T23:46:20.884Z,12.63
2023-04-18T23:49:27.989Z,12.66
2023-04-18T23:52:31.697Z,12.61
2023-04-18T23:55:35.295Z,12.52
2023-04-18T23:58:39.071Z,12.45
